Time;durP1;ratioP1;P1;durP2;ratioP2;P2;SDS_P1;SDS_P2;PMS_P1;PMS_P2;Temp;Humidity;BMP_temperature;BMP_pressure;BME280_temperature;BME280_humidity;BME280_pressure;Samples;Min_cycle;Max_cycle;Signal;HPM_P1;HPM_P2
2023/12/12 00:00:38;;;;;;;10.45;2.05;;;;;;;9.02;80.96;100722.28;7392244;19;20026;-67
2023/12/12 00:03:06;;;;;;;6.68;1.55;;;;;;;9.07;81.03;100725.44;7392225;19;20017;-67
2023/12/12 00:05:33;;;;;;;9.07;1.85;;;;;;;8.99;81.02;100730.41;7393911;19;20082;-67
2023/12/12 00:08:02;;;;;;;7.47;2.20;;;;;;;8.92;81.42;100727.31;7392521;19;20078;-67
2023/12/12 00:10:30;;;;;;;10.23;1.67;;;;;;;8.88;81.34;100736.41;7391669;19;20018;-67
2023/12/12 00:12:58;;;;;;;11.25;2.08;;;;;;;9.02;80.99;100727.56;7391945;19;20014;-68
2023/12/12 00:15:26;;;;;;;8.70;1.92;;;;;;;8.99;80.93;100727.75;7392857;19;20015;-68
2023/12/12 00:17:54;;;;;;;10.02;1.70;;;;;;;9.00;80.84;100727.69;7392547;19;20018;-67
2023/12/12 00:20:22;;;;;;;9.88;1.92;;;;;;;8.98;80.86;100736.66;7393168;19;20023;-67
2023/12/12 00:22:50;;;;;;;9.80;2.10;;;;;;;8.93;80.76;100733.44;7391599;19;20479;-67
2023/12/12 00:25:18;;;;;;;10.68;1.90;;;;;;;8.95;80.99;100731.56;7391201;19;20038;-67
2023/12/12 00:27:45;;;;;;;10.15;2.10;;;;;;;8.95;80.78;100731.56;7387735;19;20125;-67
2023/12/12 00:30:13;;;;;;;7.80;1.77;;;;;;;9.04;80.52;100741.50;7391417;19;20028;-67
2023/12/12 00:32:41;;;;;;;9.45;1.92;;;;;;;8.89;80.54;100726.69;7391059;19;20022;-67
2023/12/12 00:35:09;;;;;;;10.43;2.05;;;;;;;8.92;80.87;100735.25;7391782;19;20025;-67
2023/12/12 00:37:37;;;;;;;9.05;1.92;;;;;;;9.02;80.73;100738.97;7392334;19;20087;-67
2023/12/12 00:40:06;;;;;;;6.00;1.67;;;;;;;8.96;80.60;100735.88;7391715;19;20029;-67
2023/12/12 00:42:34;;;;;;;9.07;2.08;;;;;;;8.96;80.72;100749.09;7391554;19;20015;-67
2023/12/12 00:45:02;;;;;;;6.68;1.95;;;;;;;8.94;80.76;100746.56;7392269;19;20026;-67
2023/12/12 00:47:30;;;;;;;8.82;2.03;;;;;;;8.95;80.60;100744.75;7391327;19;20026;-67
2023/12/12 00:49:58;;;;;;;11.55;2.30;;;;;;;8.91;80.67;100741.47;7391537;19;20035;-67
2023/12/12 00:52:27;;;;;;;9.93;2.00;;;;;;;8.91;80.52;100738.84;7391414;19;20015;-67
2023/12/12 00:54:55;;;;;;;6.80;2.10;;;;;;;8.83;80.71;100746.44;7392478;19;20025;-69
2023/12/12 00:57:23;;;;;;;11.40;1.92;;;;;;;8.81;80.78;100752.75;7401049;19;20366;-67
2023/12/12 00:59:50;;;;;;;8.50;2.47;;;;;;;8.90;80.61;100752.16;7391360;19;20022;-67
2023/12/12 01:02:22;;;;;;;12.40;2.25;;;;;;;8.87;81.05;100755.00;7390717;19;20018;-67
2023/12/12 01:04:50;;;;;;;6.13;1.60;;;;;;;8.82;80.83;100757.09;7391831;19;20023;-67
2023/12/12 01:07:18;;;;;;;6.90;1.73;;;;;;;8.82;81.18;100751.81;7391074;19;20362;-67
2023/12/12 01:09:46;;;;;;;7.97;1.90;;;;;;;8.79;80.95;100758.16;7391653;19;20094;-67
2023/12/12 01:12:14;;;;;;;6.85;2.05;;;;;;;8.81;80.93;100750.94;7390411;19;20404;-67
2023/12/12 01:14:42;;;;;;;9.00;2.05;;;;;;;8.81;81.15;100750.94;7389740;19;20379;-67
2023/12/12 01:17:10;;;;;;;13.68;2.38;;;;;;;8.84;81.24;100750.75;7391384;19;20015;-67
2023/12/12 01:19:37;;;;;;;8.77;1.60;;;;;;;8.77;81.52;100752.94;7390954;19;20017;-67
2023/12/12 01:22:05;;;;;;;6.43;1.70;;;;;;;8.78;81.62;100756.47;7391713;19;20019;-67
2023/12/12 01:24:34;;;;;;;6.38;1.70;;;;;;;8.69;81.81;100764.97;7391024;19;20021;-67
2023/12/12 01:27:03;;;;;;;7.53;1.75;;;;;;;8.69;81.92;100767.63;7390520;19;20051;-67
2023/12/12 01:29:31;;;;;;;10.27;1.65;;;;;;;8.71;81.80;100765.72;7389484;19;20096;-68
2023/12/12 01:31:58;;;;;;;6.43;1.40;;;;;;;8.70;81.71;100761.38;7390659;19;20015;-67
2023/12/12 01:34:27;;;;;;;8.48;1.70;;;;;;;8.73;81.21;100762.03;7388279;19;20021;-71
2023/12/12 01:36:55;;;;;;;5.70;1.95;;;;;;;8.70;81.38;100764.88;7392660;19;20086;-70
2023/12/12 01:39:23;;;;;;;7.88;1.70;;;;;;;8.65;81.38;100764.31;7392598;19;20035;-71
2023/12/12 01:41:51;;;;;;;8.73;1.85;;;;;;;8.65;81.26;100769.59;7390230;19;20082;-71
2023/12/12 01:44:18;;;;;;;5.85;1.88;;;;;;;8.64;81.51;100775.00;7392516;19;20015;-72
2023/12/12 01:46:48;;;;;;;6.68;1.85;;;;;;;8.72;81.02;100777.97;7392580;19;20019;-71
2023/12/12 01:49:17;;;;;;;6.85;1.65;;;;;;;8.78;80.80;100781.06;7392197;19;20021;-71
2023/12/12 01:51:46;;;;;;;6.25;1.80;;;;;;;8.77;80.74;100778.50;7390135;19;20016;-68
2023/12/12 01:54:17;;;;;;;10.85;1.98;;;;;;;8.72;81.05;100777.97;7390953;19;20021;-71
2023/12/12 01:56:49;;;;;;;5.57;1.70;;;;;;;8.64;81.33;100773.19;7392228;19;20010;-70
2023/12/12 01:59:19;;;;;;;9.52;1.90;;;;;;;8.63;81.42;100774.16;7392393;19;20018;-68
2023/12/12 02:01:48;;;;;;;6.00;1.50;;;;;;;8.60;81.33;100770.88;7389290;19;20492;-74
2023/12/12 02:04:17;;;;;;;5.45;1.75;;;;;;;8.62;81.03;100775.06;7392419;19;20015;-73
2023/12/12 02:06:48;;;;;;;8.40;1.90;;;;;;;8.67;81.02;100769.53;7391177;19;20014;-72
2023/12/12 02:09:16;;;;;;;7.72;1.70;;;;;;;8.61;81.17;100769.91;7392703;19;20350;-71
2023/12/12 02:11:44;;;;;;;8.95;2.03;;;;;;;8.66;80.74;100770.44;7388077;19;20035;-70
2023/12/12 02:14:12;;;;;;;4.75;1.80;;;;;;;8.68;80.53;100777.31;7393836;19;20478;-70
2023/12/12 02:16:40;;;;;;;10.10;2.00;;;;;;;8.61;80.69;100775.19;7399324;19;20869;-70
2023/12/12 02:19:08;;;;;;;6.90;1.95;;;;;;;8.57;80.28;100769.25;7399315;19;20082;-71
2023/12/12 02:21:36;;;;;;;9.13;2.03;;;;;;;8.54;80.48;100774.72;7394226;19;20015;-69
2023/12/12 02:24:04;;;;;;;10.30;2.20;;;;;;;8.53;80.43;100767.78;7397036;19;20014;-71
2023/12/12 02:26:31;;;;;;;9.45;2.15;;;;;;;8.53;80.53;100773.06;7399755;19;20026;-72
2023/12/12 02:29:00;;;;;;;5.97;1.58;;;;;;;8.59;79.94;100769.19;7397074;19;20035;-71
2023/12/12 02:31:28;;;;;;;7.32;1.80;;;;;;;8.49;80.24;100761.84;7393773;19;20487;-69
2023/12/12 02:33:56;;;;;;;9.65;2.20;;;;;;;8.56;80.01;100761.47;7395228;19;20018;-68
2023/12/12 02:36:24;;;;;;;7.25;2.08;;;;;;;8.43;79.98;100764.03;7396889;19;20022;-68
2023/12/12 02:38:52;;;;;;;9.93;2.08;;;;;;;8.40;80.09;100767.72;7396266;19;20043;-70
2023/12/12 02:41:19;;;;;;;8.80;2.40;;;;;;;8.30;81.07;100767.44;7393989;19;20046;-70
2023/12/12 02:43:47;;;;;;;8.88;2.00;;;;;;;8.33;80.61;100766.41;7394930;19;20011;-70
2023/12/12 02:46:15;;;;;;;5.60;1.70;;;;;;;8.43;80.63;100764.91;7396474;19;20028;-69
2023/12/12 02:48:43;;;;;;;6.55;1.67;;;;;;;8.40;80.59;100767.72;7395252;19;20011;-70
2023/12/12 02:51:11;;;;;;;6.43;1.77;;;;;;;8.41;80.56;100774.69;7393625;19;20031;-71
2023/12/12 02:53:39;;;;;;;6.95;1.92;;;;;;;8.48;80.43;100781.28;7393076;19;20051;-67
2023/12/12 02:56:07;;;;;;;6.57;2.00;;;;;;;8.43;80.29;100772.81;7395717;19;20018;-66
2023/12/12 02:58:35;;;;;;;7.88;1.92;;;;;;;8.39;80.28;100776.56;7395979;19;20042;-70
2023/12/12 03:01:03;;;;;;;12.95;2.67;;;;;;;8.41;80.50;100779.13;7393615;19;20495;-71
2023/12/12 03:03:31;;;;;;;7.15;2.22;;;;;;;8.37;80.26;100774.97;7395572;19;20026;-70
2023/12/12 03:05:59;;;;;;;10.48;2.40;;;;;;;8.30;80.66;100775.34;7394296;19;20031;-69
2023/12/12 03:08:27;;;;;;;8.43;2.00;;;;;;;8.34;80.58;100778.63;7396207;19;20043;-69
2023/12/12 03:10:55;;;;;;;10.32;1.90;;;;;;;8.45;80.31;100767.44;7393840;19;20058;-70
2023/12/12 03:13:22;;;;;;;8.10;1.73;;;;;;;8.47;80.25;100768.16;7394618;19;20015;-68
2023/12/12 03:15:50;;;;;;;9.48;1.80;;;;;;;8.42;80.14;100762.34;7396093;19;20576;-68
2023/12/12 03:18:18;;;;;;;9.68;1.90;;;;;;;8.48;80.14;100761.97;7393795;19;20014;-68
2023/12/12 03:20:46;;;;;;;11.70;2.00;;;;;;;8.43;80.10;100778.09;7393041;19;20368;-69
2023/12/12 03:23:14;;;;;;;9.32;2.03;;;;;;;8.40;80.25;100772.16;7394815;19;20027;-70
2023/12/12 03:25:42;;;;;;;8.65;2.00;;;;;;;8.40;80.37;100773.00;7394796;19;20508;-68
2023/12/12 03:28:11;;;;;;;7.57;1.80;;;;;;;8.37;80.15;100773.19;7395902;19;20026;-67
2023/12/12 03:30:39;;;;;;;7.18;1.63;;;;;;;8.47;79.96;100771.66;7393433;19;20081;-69
2023/12/12 03:33:07;;;;;;;7.75;2.30;;;;;;;8.53;79.44;100770.41;7394473;19;20085;-70
2023/12/12 03:35:35;;;;;;;9.93;2.50;;;;;;;8.40;79.93;100778.28;7396181;19;20381;-72
2023/12/12 03:38:03;;;;;;;7.55;2.00;;;;;;;8.48;79.63;100778.63;7394708;19;20015;-72
2023/12/12 03:40:31;;;;;;;9.60;2.45;;;;;;;8.51;79.47;100767.03;7392569;19;20018;-72
2023/12/12 03:42:58;;;;;;;8.93;2.70;;;;;;;8.57;78.75;100771.06;7394846;19;20015;-73
2023/12/12 03:45:27;;;;;;;10.15;2.75;;;;;;;8.57;78.79;100771.91;7394316;19;20412;-72
2023/12/12 03:47:55;;;;;;;9.65;2.72;;;;;;;8.50;78.66;100778.53;7394190;19;20044;-71
2023/12/12 03:50:22;;;;;;;8.73;2.00;;;;;;;8.43;79.00;100774.56;7393502;19;20029;-72
2023/12/12 03:52:50;;;;;;;9.05;2.05;;;;;;;8.32;79.04;100770.00;7394686;19;20027;-69
2023/12/12 03:55:18;;;;;;;9.52;1.75;;;;;;;8.34;79.31;100772.50;7394558;19;20388;-68
2023/12/12 03:57:47;;;;;;;8.43;2.10;;;;;;;8.39;78.92;100763.38;7393890;19;20029;-69
2023/12/12 04:00:15;;;;;;;4.88;1.73;;;;;;;8.34;78.91;100767.25;7392062;19;20014;-69
2023/12/12 04:02:43;;;;;;;11.73;2.55;;;;;;;8.42;78.48;100768.47;7394133;19;20022;-71
2023/12/12 04:05:11;;;;;;;6.82;1.80;;;;;;;8.39;78.75;100775.72;7392455;19;20018;-71
2023/12/12 04:07:40;;;;;;;8.57;2.15;;;;;;;8.39;78.71;100763.38;7393817;19;20022;-70
2023/12/12 04:10:08;;;;;;;5.78;2.13;;;;;;;8.38;78.66;100769.59;7392594;19;20014;-70
2023/12/12 04:12:36;;;;;;;6.53;2.00;;;;;;;8.35;78.63;100769.75;7393455;19;20204;-70
2023/12/12 04:15:05;;;;;;;10.05;2.38;;;;;;;8.27;78.69;100761.50;7391731;19;20130;-70
2023/12/12 04:17:33;;;;;;;10.02;2.70;;;;;;;8.24;78.82;100770.47;7392143;19;20011;-70
2023/12/12 04:20:01;;;;;;;7.65;1.98;;;;;;;8.30;78.25;100771.88;7392389;19;20479;-70
2023/12/12 04:22:29;;;;;;;7.85;2.10;;;;;;;8.25;77.95;100771.31;7393405;19;20519;-70
2023/12/12 04:24:57;;;;;;;8.45;1.95;;;;;;;8.20;78.40;100773.38;7393044;19;20019;-70
2023/12/12 04:27:25;;;;;;;6.78;1.90;;;;;;;8.24;78.07;100774.88;7392984;19;20023;-70
2023/12/12 04:29:53;;;;;;;10.07;2.75;;;;;;;8.19;78.19;100777.81;7392573;19;20029;-70
2023/12/12 04:32:20;;;;;;;7.65;2.42;;;;;;;8.23;78.05;100786.38;7393104;19;20015;-70
2023/12/12 04:34:48;;;;;;;7.43;2.25;;;;;;;8.18;77.74;100772.66;7391634;19;20119;-71
2023/12/12 04:37:16;;;;;;;8.02;2.28;;;;;;;8.16;77.94;100783.28;7391254;19;20030;-71
2023/12/12 04:39:44;;;;;;;6.75;2.08;;;;;;;8.18;77.89;100775.28;7391879;19;20022;-71
2023/12/12 04:42:13;;;;;;;7.03;2.10;;;;;;;8.24;77.80;100791.59;7390517;19;20018;-71
2023/12/12 04:44:44;;;;;;;9.35;2.22;;;;;;;8.23;77.60;100783.75;7392327;19;20375;-71
2023/12/12 04:47:13;;;;;;;8.50;2.47;;;;;;;8.21;77.66;100785.66;7392462;19;20077;-69
2023/12/12 04:49:41;;;;;;;9.40;2.15;;;;;;;8.15;77.92;100781.59;7391840;19;20015;-69
2023/12/12 04:52:09;;;;;;;6.97;2.10;;;;;;;8.18;77.87;100785.84;7391570;19;20025;-69
2023/12/12 04:54:37;;;;;;;7.15;2.28;;;;;;;8.12;77.68;100778.31;7390657;19;20014;-69
2023/12/12 04:57:04;;;;;;;8.07;2.17;;;;;;;8.09;77.79;100776.72;7392255;19;20015;-69
2023/12/12 04:59:32;;;;;;;8.95;2.15;;;;;;;8.19;77.33;100776.97;7391875;19;20025;-69
2023/12/12 05:02:04;;;;;;;7.82;2.28;;;;;;;8.09;77.66;100781.13;7391698;19;20018;-69
2023/12/12 05:04:32;;;;;;;7.22;2.28;;;;;;;8.19;77.42;100776.97;7392063;19;20376;-69
2023/12/12 05:07:00;;;;;;;8.15;2.75;;;;;;;8.14;77.45;100784.34;7391481;19;20442;-69
2023/12/12 05:09:28;;;;;;;8.23;2.20;;;;;;;8.20;77.25;100783.94;7391585;19;20017;-69
2023/12/12 05:11:56;;;;;;;7.82;2.42;;;;;;;8.23;77.28;100775.81;7390949;19;20090;-69
2023/12/12 05:14:24;;;;;;;9.90;2.00;;;;;;;8.25;77.21;100772.16;7390836;19;20493;-69
2023/12/12 05:16:52;;;;;;;9.18;2.22;;;;;;;8.26;76.73;100773.84;7391250;19;20363;-69
2023/12/12 05:19:33;;;;;;;6.15;2.15;;;;;;;8.17;77.23;100781.50;7391014;19;20034;-68
2023/12/12 05:22:03;;;;;;;7.65;2.25;;;;;;;8.15;77.20;100778.94;7389181;19;20088;-68
2023/12/12 05:24:30;;;;;;;10.00;2.00;;;;;;;8.24;77.20;100778.38;7391314;19;20014;-69
2023/12/12 05:26:59;;;;;;;8.15;2.15;;;;;;;8.26;76.90;100780.91;7391528;19;20020;-69
2023/12/12 05:29:26;;;;;;;6.85;2.00;;;;;;;8.25;77.19;100793.25;7391037;19;20496;-69
2023/12/12 05:31:54;;;;;;;9.20;2.33;;;;;;;8.19;76.95;100783.09;7388879;19;20037;-69
2023/12/12 05:34:22;;;;;;;6.65;2.30;;;;;;;8.12;77.32;100788.84;7389716;19;20036;-69
2023/12/12 05:36:50;;;;;;;6.03;2.47;;;;;;;8.11;77.10;100782.72;7390948;19;20018;-68
2023/12/12 05:39:18;;;;;;;9.20;2.58;;;;;;;8.11;77.34;100790.66;7391167;19;20086;-67
2023/12/12 05:41:48;;;;;;;7.25;2.33;;;;;;;7.96;77.72;100781.91;7388947;19;20018;-66
2023/12/12 05:44:16;;;;;;;5.55;2.10;;;;;;;7.93;77.96;100791.78;7390415;19;20562;-67
2023/12/12 05:46:44;;;;;;;9.50;3.20;;;;;;;7.93;77.97;100795.25;7390429;19;20018;-67
2023/12/12 05:49:12;;;;;;;8.25;2.50;;;;;;;7.92;78.08;100803.28;7394579;19;20363;-67
2023/12/12 05:51:40;;;;;;;11.00;2.58;;;;;;;7.91;77.69;100799.81;7395031;19;20043;-67
2023/12/12 05:54:11;;;;;;;11.85;2.50;;;;;;;7.90;77.92;100808.66;7397418;19;20011;-67
2023/12/12 05:56:45;;;;;;;12.95;3.28;;;;;;;7.90;78.09;100802.50;7397699;19;20026;-66
2023/12/12 05:59:14;;;;;;;9.85;2.30;;;;;;;7.92;77.97;100806.75;7397724;19;20021;-66
2023/12/12 06:01:42;;;;;;;9.23;2.45;;;;;;;7.93;77.95;100800.53;7394872;19;20011;-66
2023/12/12 06:04:12;;;;;;;11.48;2.97;;;;;;;7.95;78.06;100811.00;7398404;19;20035;-66
2023/12/12 06:06:42;;;;;;;7.32;2.15;;;;;;;7.94;78.00;100817.22;7397270;19;20052;-66
2023/12/12 06:09:11;;;;;;;9.32;2.80;;;;;;;7.87;78.04;100802.72;7395932;19;20015;-66
2023/12/12 06:11:40;;;;;;;10.30;3.45;;;;;;;7.96;77.79;100810.06;7394017;19;20611;-66
2023/12/12 06:14:09;;;;;;;11.05;3.30;;;;;;;8.03;77.47;100816.66;7397208;19;20019;-66
2023/12/12 06:16:37;;;;;;;11.05;3.28;;;;;;;7.91;77.70;100806.88;7397433;19;20015;-66
2023/12/12 06:19:06;;;;;;;15.30;3.58;;;;;;;7.91;78.09;100799.81;7396981;19;20385;-66
2023/12/12 06:21:34;;;;;;;14.15;3.10;;;;;;;7.92;77.84;100803.28;7394425;19;20018;-66
2023/12/12 06:24:03;;;;;;;17.17;3.35;;;;;;;7.91;77.62;100799.81;7397078;19;20364;-66
2023/12/12 06:26:31;;;;;;;11.75;3.22;;;;;;;7.91;77.80;100804.22;7397318;19;20014;-66
2023/12/12 06:28:59;;;;;;;16.05;3.22;;;;;;;7.91;77.86;100805.06;7397214;19;20426;-66
2023/12/12 06:31:31;;;;;;;9.93;2.75;;;;;;;7.88;77.79;100807.06;7393951;19;20022;-66
2023/12/12 06:33:59;;;;;;;8.55;3.10;;;;;;;7.85;77.62;100802.81;7396720;19;20025;-67
2023/12/12 06:36:28;;;;;;;14.63;3.17;;;;;;;7.85;77.60;100804.59;7397187;19;20014;-67
2023/12/12 06:38:56;;;;;;;10.95;2.65;;;;;;;7.83;77.46;100809.97;7395037;19;20014;-66
2023/12/12 06:41:24;;;;;;;12.85;3.25;;;;;;;7.77;77.73;100810.34;7394435;19;20014;-66
2023/12/12 06:43:51;;;;;;;9.45;3.47;;;;;;;7.73;77.81;100795.66;7395648;19;20018;-66
2023/12/12 06:46:19;;;;;;;14.52;3.05;;;;;;;7.64;77.99;100804.97;7396932;19;20014;-66
2023/12/12 06:48:47;;;;;;;14.90;3.30;;;;;;;7.50;78.32;100802.31;7396631;19;20341;-66
2023/12/12 06:51:15;;;;;;;9.15;2.70;;;;;;;7.55;78.46;100803.75;7393959;19;20021;-66
2023/12/12 06:53:44;;;;;;;17.42;3.40;;;;;;;7.47;78.64;100805.13;7396331;19;20031;-66
2023/12/12 06:56:12;;;;;;;14.88;3.55;;;;;;;7.32;79.18;100801.63;7392076;19;20011;-67
2023/12/12 06:58:40;;;;;;;11.93;3.67;;;;;;;7.22;79.44;100808.41;7393857;19;20021;-67
2023/12/12 07:01:08;;;;;;;12.35;3.53;;;;;;;7.18;79.41;100802.47;7393035;19;20021;-65
2023/12/12 07:03:36;;;;;;;11.95;3.40;;;;;;;7.21;79.65;100809.31;7395220;19;20031;-66
2023/12/12 07:06:08;;;;;;;10.05;3.67;;;;;;;7.12;80.12;100809.88;7395472;19;20025;-66
2023/12/12 07:08:37;;;;;;;12.50;3.00;;;;;;;7.21;79.32;100810.19;7395827;19;20011;-66
2023/12/12 07:11:05;;;;;;;9.80;3.05;;;;;;;7.13;79.30;100801.03;7394079;19;20031;-66
2023/12/12 07:13:33;;;;;;;9.57;3.75;;;;;;;6.96;79.80;100804.66;7395258;19;20019;-66
2023/12/12 07:16:00;;;;;;;11.68;3.60;;;;;;;6.68;80.81;100808.88;7393680;19;20026;-66
2023/12/12 07:18:29;;;;;;;10.50;3.60;;;;;;;6.74;81.10;100812.91;7395752;19;20026;-66
2023/12/12 07:21:00;;;;;;;14.38;4.25;;;;;;;6.66;81.30;100804.59;7393393;19;20015;-66
2023/12/12 07:23:29;;;;;;;16.70;5.65;;;;;;;6.80;80.82;100809.94;7394715;19;20048;-66
2023/12/12 07:25:57;;;;;;;14.23;5.05;;;;;;;6.66;81.10;100807.25;7396601;19;20011;-68
2023/12/12 07:28:26;;;;;;;9.85;3.90;;;;;;;6.54;81.17;100811.41;7395894;19;20018;-68
2023/12/12 07:30:54;;;;;;;11.38;3.92;;;;;;;6.42;81.60;100820.00;7393172;19;20014;-69
2023/12/12 07:33:22;;;;;;;9.82;3.55;;;;;;;6.35;82.15;100825.59;7396251;19;20715;-67
2023/12/12 07:35:50;;;;;;;11.68;3.45;;;;;;;6.26;82.57;100834.00;7393671;19;20399;-68
2023/12/12 07:38:18;;;;;;;9.73;3.25;;;;;;;6.17;82.71;100831.00;7395540;19;20039;-67
2023/12/12 07:40:46;;;;;;;10.75;3.78;;;;;;;6.11;83.09;100837.44;7394131;19;20378;-67
2023/12/12 07:43:14;;;;;;;8.57;3.78;;;;;;;6.12;83.10;100840.91;7394600;19;20301;-68
2023/12/12 07:45:42;;;;;;;8.27;3.40;;;;;;;6.26;82.96;100838.41;7394842;19;20015;-69
2023/12/12 07:48:10;;;;;;;10.93;3.72;;;;;;;6.65;81.70;100839.75;7395399;19;20026;-68
2023/12/12 07:50:38;;;;;;;10.98;4.03;;;;;;;6.59;80.97;100841.78;7394199;19;20130;-67
2023/12/12 07:53:06;;;;;;;9.15;3.33;;;;;;;6.58;81.42;100834.81;7396093;19;20388;-68
2023/12/12 07:55:35;;;;;;;9.43;3.63;;;;;;;6.78;80.54;100838.13;7394193;19;20205;-68
2023/12/12 07:58:03;;;;;;;9.70;3.45;;;;;;;6.67;81.04;100838.72;7394622;19;20043;-68
2023/12/12 08:00:31;;;;;;;14.02;4.50;;;;;;;6.51;81.80;100838.72;7392694;19;20019;-68
2023/12/12 08:02:59;;;;;;;9.88;4.40;;;;;;;6.39;82.45;100836.78;7392145;19;20078;-68
2023/12/12 08:05:28;;;;;;;11.05;4.22;;;;;;;6.81;81.81;100832.69;7394390;19;20384;-68
2023/12/12 08:08:03;;;;;;;9.95;4.05;;;;;;;6.99;80.29;100829.00;7392923;19;20028;-68
2023/12/12 08:10:31;;;;;;;12.95;4.63;;;;;;;6.83;80.45;100828.19;7391635;19;20046;-67
2023/12/12 08:12:59;;;;;;;12.48;4.45;;;;;;;6.50;81.83;100823.88;7392995;19;20019;-67
2023/12/12 08:15:28;;;;;;;10.25;4.13;;;;;;;6.40;82.42;100827.94;7392167;19;20090;-67
2023/12/12 08:17:56;;;;;;;10.25;4.20;;;;;;;6.47;82.32;100833.72;7393843;19;20018;-67
2023/12/12 08:20:24;;;;;;;10.25;4.10;;;;;;;6.63;81.75;100823.19;7392635;19;20383;-67
2023/12/12 08:22:52;;;;;;;12.52;4.72;;;;;;;6.62;81.88;100822.34;7396816;19;20086;-67
2023/12/12 08:25:21;;;;;;;16.77;5.70;;;;;;;6.78;81.35;100830.22;7393467;19;20019;-67
2023/12/12 08:27:49;;;;;;;11.90;5.13;;;;;;;6.90;81.09;100828.69;7393261;19;20035;-67
2023/12/12 08:30:17;;;;;;;14.90;5.25;;;;;;;6.83;81.04;100823.78;7391373;19;20019;-67
2023/12/12 08:32:45;;;;;;;13.27;5.07;;;;;;;6.78;81.29;100827.59;7392927;19;20021;-67
2023/12/12 08:35:13;;;;;;;12.45;5.15;;;;;;;6.76;81.70;100825.06;7392124;19;20018;-67
2023/12/12 08:37:41;;;;;;;13.38;4.80;;;;;;;6.98;80.85;100829.09;7393331;19;20494;-67
2023/12/12 08:40:10;;;;;;;18.40;5.47;;;;;;;6.99;80.90;100830.81;7392772;19;20021;-66
2023/12/12 08:42:39;;;;;;;12.88;6.03;;;;;;;7.17;80.18;100827.06;7393385;19;20021;-67
2023/12/12 08:45:08;;;;;;;10.60;5.32;;;;;;;7.33;79.95;100827.06;7393441;19;20017;-66
2023/12/12 08:47:37;;;;;;;16.88;4.95;;;;;;;7.42;79.30;100830.91;7392397;19;20617;-66
2023/12/12 08:50:07;;;;;;;15.05;5.53;;;;;;;7.02;81.03;100831.47;7391930;19;20046;-67
2023/12/12 08:52:37;;;;;;;11.20;5.35;;;;;;;7.00;81.66;100824.59;7393949;19;20074;-67
2023/12/12 08:55:08;;;;;;;15.18;5.38;;;;;;;7.36;80.07;100828.63;7393559;19;20023;-67
2023/12/12 08:57:36;;;;;;;11.30;5.32;;;;;;;7.12;80.85;100830.94;7392562;19;20031;-68
2023/12/12 09:00:06;;;;;;;15.20;5.22;;;;;;;7.20;81.03;100820.78;7391802;19;20014;-67
2023/12/12 09:02:34;;;;;;;10.93;4.90;;;;;;;7.31;80.33;100821.00;7392792;19;20010;-66
2023/12/12 09:05:03;;;;;;;12.32;4.78;;;;;;;7.07;81.57;100821.50;7393790;19;20085;-66
2023/12/12 09:07:33;;;;;;;12.23;5.35;;;;;;;7.12;80.75;100818.59;7392711;19;20032;-65
2023/12/12 09:10:06;;;;;;;13.75;5.25;;;;;;;6.89;81.92;100819.94;7389793;19;20014;-66
2023/12/12 09:12:34;;;;;;;10.25;4.80;;;;;;;7.04;81.89;100829.59;7391738;19;20377;-71
2023/12/12 09:15:02;;;;;;;14.13;6.03;;;;;;;6.97;81.95;100822.13;7390928;19;20388;-68
2023/12/12 09:17:30;;;;;;;12.77;5.53;;;;;;;7.02;81.72;100826.22;7389894;19;20366;-67
2023/12/12 09:20:00;;;;;;;11.23;5.82;;;;;;;7.12;81.41;100818.59;7388909;19;20025;-67
2023/12/12 09:22:30;;;;;;;13.63;5.45;;;;;;;7.43;80.30;100814.16;7393311;19;20493;-67
2023/12/12 09:24:58;;;;;;;13.00;6.03;;;;;;;7.31;80.30;100816.59;7398721;19;20030;-66
2023/12/12 09:27:25;;;;;;;13.23;6.43;;;;;;;7.42;80.61;100820.38;7398756;19;20010;-66
2023/12/12 09:29:53;;;;;;;16.20;6.38;;;;;;;7.49;80.10;100819.06;7395966;19;20377;-66
2023/12/12 09:32:22;;;;;;;15.45;6.03;;;;;;;7.30;81.07;100814.06;7398862;19;20022;-67
2023/12/12 09:34:50;;;;;;;14.25;6.28;;;;;;;7.58;80.45;100814.09;7397237;19;20014;-67
2023/12/12 09:37:22;;;;;;;13.32;6.65;;;;;;;7.76;79.59;100817.41;7398787;19;20017;-67
2023/12/12 09:39:50;;;;;;;15.23;6.63;;;;;;;7.63;80.41;100805.94;7397774;19;20047;-66
2023/12/12 09:42:23;;;;;;;13.95;6.57;;;;;;;7.93;79.45;100803.19;7398379;19;20034;-65
2023/12/12 09:44:57;;;;;;;17.40;7.10;;;;;;;7.84;78.85;100800.28;7398765;19;20525;-65
2023/12/12 09:47:29;;;;;;;15.43;7.43;;;;;;;7.86;79.66;100795.75;7398154;19;20388;-65
2023/12/12 09:49:58;;;;;;;13.40;7.13;;;;;;;7.82;79.23;100801.22;7397595;19;20014;-65
2023/12/12 09:52:30;;;;;;;14.30;6.63;;;;;;;7.80;80.04;100799.63;7398039;19;20546;-65
2023/12/12 09:54:59;;;;;;;16.83;6.75;;;;;;;7.76;79.92;100804.22;7398149;19;20014;-65
2023/12/12 09:57:29;;;;;;;16.23;7.00;;;;;;;7.93;79.64;100803.19;7398333;19;20388;-65
2023/12/12 09:59:58;;;;;;;15.65;6.70;;;;;;;8.00;79.84;100787.81;7396877;19;20022;-65
2023/12/12 10:02:36;;;;;;;14.32;6.72;;;;;;;8.14;78.95;100789.63;7397750;19;20491;-65
2023/12/12 10:05:09;;;;;;;15.35;7.32;;;;;;;8.12;79.71;100788.84;7397921;19;20087;-65
2023/12/12 10:07:39;;;;;;;19.23;7.70;;;;;;;8.23;79.18;100784.59;7398189;19;20018;-65
2023/12/12 10:10:12;;;;;;;19.48;7.88;;;;;;;8.24;78.84;100794.22;7397046;19;20018;-65
2023/12/12 10:12:41;;;;;;;14.88;7.00;;;;;;;8.13;79.53;100779.97;7397787;19;20442;-65
2023/12/12 10:15:22;;;;;;;14.95;7.18;;;;;;;8.34;79.17;100783.06;7396046;19;20019;-65
2023/12/12 10:17:58;;;;;;;15.77;6.90;;;;;;;8.42;78.53;100775.53;7397914;19;20026;-65
2023/12/12 10:20:28;;;;;;;15.88;7.85;;;;;;;8.42;78.72;100779.00;7395611;19;20082;-64
2023/12/12 10:22:59;;;;;;;14.48;7.05;;;;;;;8.45;78.67;100772.69;7397369;19;20038;-64
2023/12/12 10:25:28;;;;;;;13.30;7.03;;;;;;;8.46;78.54;100777.88;7396882;19;20022;-64
2023/12/12 10:27:57;;;;;;;16.15;7.72;;;;;;;8.47;78.84;100771.66;7397087;19;20499;-64
2023/12/12 10:30:26;;;;;;;15.10;7.82;;;;;;;8.53;78.56;100773.91;7393724;19;20419;-63
2023/12/12 10:32:55;;;;;;;16.25;7.15;;;;;;;8.60;78.56;100765.59;7397420;19;20030;-65
2023/12/12 10:35:25;;;;;;;16.52;8.10;;;;;;;8.56;78.56;100758.81;7392881;19;20047;-65
2023/12/12 10:37:53;;;;;;;14.80;8.15;;;;;;;8.59;78.43;100753.34;7395452;19;20385;-66
2023/12/12 10:40:22;;;;;;;16.80;8.00;;;;;;;8.53;78.67;100752.78;7395409;19;20348;-69
2023/12/12 10:42:51;;;;;;;16.85;7.97;;;;;;;8.51;78.51;100754.69;7395680;19;20023;-67
2023/12/12 10:45:26;;;;;;;18.33;8.48;;;;;;;8.56;78.72;100742.97;7396678;19;20035;-68
2023/12/12 10:47:57;;;;;;;17.33;7.93;;;;;;;8.65;78.52;100745.84;7395860;19;20442;-68
2023/12/12 10:50:31;;;;;;;15.48;7.65;;;;;;;8.67;78.45;100733.41;7394746;19;20018;-68
2023/12/12 10:53:01;;;;;;;16.73;8.13;;;;;;;8.68;78.49;100729.81;7395024;19;20029;-66
2023/12/12 10:55:31;;;;;;;14.93;7.53;;;;;;;8.66;78.55;100731.72;7396391;19;20039;-66
2023/12/12 10:57:59;;;;;;;18.95;8.18;;;;;;;8.68;78.30;100731.63;7396326;19;20024;-67
2023/12/12 11:00:27;;;;;;;18.10;8.45;;;;;;;8.68;78.26;100723.69;7394335;19;20022;-67
2023/12/12 11:02:59;;;;;;;16.17;7.75;;;;;;;8.64;78.48;100722.19;7396095;19;20025;-67
2023/12/12 11:05:27;;;;;;;19.45;7.93;;;;;;;8.59;78.51;100721.66;7398325;19;20614;-75
2023/12/12 11:07:57;;;;;;;15.68;7.88;;;;;;;8.54;78.84;100714.88;7398703;19;20035;-69
2023/12/12 11:10:26;;;;;;;16.70;7.75;;;;;;;8.57;78.81;100719.13;7397127;19;20078;-72
2023/12/12 11:13:00;;;;;;;17.58;8.23;;;;;;;8.58;78.87;100710.25;7398534;19;20098;-72
2023/12/12 11:15:30;;;;;;;20.08;8.60;;;;;;;8.59;78.81;100703.19;7396027;19;20018;-70
2023/12/12 11:17:59;;;;;;;14.65;7.70;;;;;;;8.56;78.75;100691.03;7394986;19;20039;-58
2023/12/12 11:20:37;;;;;;;18.05;8.02;;;;;;;8.71;78.48;100689.19;7394206;19;20023;-59
2023/12/12 11:23:07;;;;;;;18.02;7.72;;;;;;;8.67;78.62;100679.78;7395486;19;20047;-60
2023/12/12 11:25:37;;;;;;;19.02;7.68;;;;;;;8.70;78.75;100671.63;7394925;19;20014;-58
2023/12/12 11:28:05;;;;;;;19.13;7.47;;;;;;;8.74;78.40;100673.97;7395203;19;20014;-60
2023/12/12 11:30:38;;;;;;;19.55;7.65;;;;;;;8.81;78.38;100670.91;7392899;19;20018;-61
2023/12/12 11:33:07;;;;;;;15.77;7.72;;;;;;;8.73;78.71;100663.50;7395376;19;20015;-61
2023/12/12 11:35:35;;;;;;;15.60;7.60;;;;;;;8.72;78.75;100661.81;7395065;19;20518;-60